< < Back
Terminal Aerodrome Forecast


Current Version              Previous Versions:   1  2  3  4  5  6  7  8  9  

Terminal Aerodrome Forecast

794
FTUS44 KBMX 200500
TAFBHM
TAF
KBHM 200522Z 2006/2106 00000KT P6SM SKC=



Latest METAR

263
SAUS70 KWBC 211000 RRJ
MTRBHM
METAR KBHM 210953Z 00000KT 10SM CLR 10/09 A3005 RMK AO2 SLP173
T01000089


USA.gov is the U.S. government's official web portal to all federal, state and local government web resources and services.